Time;durP1;ratioP1;P1;durP2;ratioP2;P2;SDS_P1;SDS_P2;PMS_P1;PMS_P2;Temp;Humidity;BMP_temperature;BMP_pressure;BME280_temperature;BME280_humidity;BME280_pressure;Samples;Min_cycle;Max_cycle;Signal;HPM_P1;HPM_P2
2023/05/18 07:14:04;;;;;;;1.98;0.30;;;10.90;65.00;;;;;;5627940;22;15357631;-90
2023/05/18 07:16:45;;;;;;;1.50;0.38;;;11.00;65.10;;;;;;6231282;22;20044;-95
2023/05/18 07:29:19;;;;;;;1.27;0.47;;;11.20;64.50;;;;;;6258874;22;20083;-94
2023/05/18 07:32:27;;;;;;;2.05;0.30;;;11.40;64.30;;;;;;6258513;22;20044;-95
2023/05/18 07:43:44;;;;;;;1.10;0.20;;;11.80;63.90;;;;;;6135506;23;20017;-95
2023/05/18 07:46:34;;;;;;;;;;;;;;;;;;;;;
2023/05/18 07:49:57;;;;;;;2.25;0.32;;;12.00;63.50;;;;;;6222261;23;20024;-95
2023/05/18 08:02:37;;;;;;;2.35;0.50;;;12.70;62.30;;;;;;6158107;23;20009;-93
2023/05/18 08:05:26;;;;;;;2.40;0.30;;;12.80;61.70;;;;;;6046104;23;20050;-96
2023/05/18 08:08:22;;;;;;;3.90;0.68;;;12.80;61.80;;;;;;6050986;23;20027;-95
2023/05/18 08:10:56;;;;;;;3.10;0.50;;;13.00;61.50;;;;;;6051182;23;20029;-95
2023/05/18 08:17:51;;;;;;;4.63;0.52;;;13.30;60.70;;;;;;6133893;23;20044;-94
2023/05/18 08:20:35;;;;;;;4.35;0.73;;;13.50;60.50;;;;;;6083605;23;20022;-93
2023/05/18 08:23:29;;;;;;;3.30;0.50;;;13.60;60.30;;;;;;6113725;23;20123;-93
2023/05/18 08:26:40;;;;;;;;;;;;;;;;;;;;;
2023/05/18 08:29:36;;;;;;;2.53;0.65;;;13.70;60.50;;;;;;6056446;23;20006;-94
2023/05/18 08:34:05;;;;;;;;;;;;;;;;;;;;;
2023/05/18 08:37:04;;;;;;;1.75;0.50;;;14.10;59.90;;;;;;6129847;23;20009;-90
2023/05/18 08:41:03;;;;;;;;;;;;;;;;;;;;;
2023/05/18 08:49:20;;;;;;;3.17;0.40;;;14.60;59.20;;;;;;6072682;23;20022;-88
2023/05/18 08:52:33;;;;;;;3.28;0.70;;;14.60;59.20;;;;;;6083007;23;20021;-90
2023/05/18 09:10:31;;;;;;;1.20;0.30;;;14.70;58.80;;;;;;5980495;23;20035;-95
2023/05/18 09:13:31;;;;;;;4.47;0.45;;;14.70;58.90;;;;;;5995913;23;20023;-94
2023/05/18 09:16:37;;;;;;;2.63;0.60;;;14.70;58.70;;;;;;6074869;23;20026;-94
2023/05/18 09:19:36;;;;;;;2.92;0.80;;;14.60;58.60;;;;;;6018168;23;20077;-94
2023/05/18 09:22:50;;;;;;;3.97;0.50;;;14.40;58.80;;;;;;6042119;23;20113;-93
2023/05/18 09:25:44;;;;;;;4.88;0.57;;;14.30;58.70;;;;;;6168674;23;20025;-93
2023/05/18 09:29:12;;;;;;;4.18;0.50;;;14.30;58.70;;;;;;6192998;23;20023;-93
2023/05/18 09:32:12;;;;;;;3.88;0.57;;;14.40;58.50;;;;;;6079571;23;20098;-94
2023/05/18 09:35:36;;;;;;;4.93;0.80;;;14.50;58.10;;;;;;6064994;23;20141;-95
2023/05/18 09:39:20;;;;;;;2.10;0.40;;;14.40;57.70;;;;;;6076888;23;20090;-96
2023/05/18 09:51:52;;;;;;;;;;;;;;;;;;;;;
2023/05/18 10:01:05;;;;;;;4.38;0.80;;;14.50;57.20;;;;;;5874708;24;20025;-93
2023/05/18 10:03:37;;;;;;;2.72;0.50;;;14.60;57.00;;;;;;5987149;23;20020;-93
2023/05/18 10:06:07;;;;;;;2.22;0.50;;;14.70;57.10;;;;;;5965361;23;20480;-92
2023/05/18 10:08:36;;;;;;;2.75;0.47;;;14.80;56.90;;;;;;5965342;23;20020;-90
2023/05/18 10:11:22;;;;;;;2.92;0.47;;;14.90;56.70;;;;;;5974251;23;20024;-93
2023/05/18 10:18:46;;;;;;;2.65;0.70;;;14.80;56.80;;;;;;6218617;23;20032;-91
2023/05/18 10:25:25;;;;;;;2.13;0.40;;;14.80;56.80;;;;;;6026341;23;20030;-85
2023/05/18 10:28:10;;;;;;;3.05;0.70;;;14.90;56.60;;;;;;6015157;23;20098;-90
2023/05/18 10:30:50;;;;;;;2.70;0.43;;;14.90;56.60;;;;;;5993333;23;20549;-96
2023/05/18 10:33:19;;;;;;;3.55;0.63;;;14.90;56.60;;;;;;6039762;23;20123;-93
2023/05/18 10:35:57;;;;;;;1.52;0.50;;;14.90;56.60;;;;;;6016724;23;20027;-91
2023/05/18 10:38:26;;;;;;;2.47;0.50;;;14.80;56.40;;;;;;6053550;23;20029;-92
2023/05/18 10:40:59;;;;;;;2.95;0.70;;;14.70;56.40;;;;;;6106989;23;20112;-91
2023/05/18 10:47:05;;;;;;;1.65;0.52;;;14.50;56.40;;;;;;6132190;23;20065;-91
2023/05/18 10:49:34;;;;;;;4.47;0.70;;;14.50;56.60;;;;;;6112790;23;20018;-89
2023/05/18 10:52:30;;;;;;;3.40;0.63;;;14.60;56.50;;;;;;6155515;23;20041;-86
2023/05/18 10:55:06;;;;;;;;;;;14.80;56.10;;;;;;6120299;23;20021;-87
2023/05/18 10:58:27;;;;;;;4.15;0.50;;;14.90;56.20;;;;;;6098084;23;19957;-95
2023/05/18 11:05:25;;;;;;;3.33;0.50;;;15.10;55.90;;;;;;6156595;23;20020;-91
2023/05/18 11:08:02;;;;;;;2.17;0.50;;;15.20;55.70;;;;;;6197156;23;20020;-88
2023/05/18 11:10:45;;;;;;;5.03;1.00;;;15.40;55.50;;;;;;6195642;23;20022;-91
2023/05/18 11:13:14;;;;;;;4.15;0.63;;;15.40;55.00;;;;;;6196782;23;20027;-92
2023/05/18 11:15:58;;;;;;;2.40;0.50;;;15.40;55.10;;;;;;6199817;23;20076;-94
2023/05/18 11:18:37;;;;;;;3.28;1.00;;;15.50;54.80;;;;;;6200555;23;20024;-94
2023/05/18 11:21:33;;;;;;;2.75;0.60;;;15.60;54.70;;;;;;6198061;23;20020;-96
2023/05/18 11:28:43;;;;;;;4.80;0.98;;;16.00;54.10;;;;;;6251570;23;20019;-96
2023/05/18 11:47:28;;;;;;;2.25;0.63;;;16.50;52.50;;;;;;6280452;22;20050;-93
2023/05/18 11:55:39;;;;;;;3.85;0.50;;;17.20;51.50;;;;;;6026290;23;20038;-96
2023/05/18 12:00:02;;;;;;;;;;;;;;;;;;;;;
2023/05/18 12:03:31;;;;;;;4.05;0.88;;;18.50;50.40;;;;;;5817407;24;20404;-90
2023/05/18 12:06:40;;;;;;;2.85;0.70;;;19.00;50.00;;;;;;5965570;23;20070;-94
2023/05/18 12:09:16;;;;;;;3.83;0.60;;;19.40;49.60;;;;;;5986929;23;20026;-91
2023/05/18 12:11:46;;;;;;;1.85;0.52;;;19.70;49.40;;;;;;5988541;23;20047;-93
2023/05/18 12:14:20;;;;;;;2.22;0.70;;;19.90;48.90;;;;;;6103940;23;20124;-91
2023/05/18 12:16:48;;;;;;;5.30;0.70;;;20.00;48.20;;;;;;6170829;22;20082;-90
2023/05/18 12:19:18;;;;;;;2.30;0.88;;;20.00;48.20;;;;;;6230542;22;20019;-90
2023/05/18 12:21:45;;;;;;;2.28;0.60;;;20.00;48.20;;;;;;6256358;22;20019;-91
2023/05/18 12:24:13;;;;;;;2.17;0.60;;;20.00;48.00;;;;;;6281654;22;20317;-90
2023/05/18 12:26:48;;;;;;;5.25;0.90;;;19.80;48.00;;;;;;6256269;22;20023;-91
2023/05/18 12:29:27;;;;;;;2.15;0.60;;;19.40;48.30;;;;;;6281906;22;20106;-95
2023/05/18 12:32:06;;;;;;;3.47;0.85;;;19.00;48.80;;;;;;6284084;22;20019;-95
2023/05/18 12:34:33;;;;;;;3.05;0.70;;;18.80;49.00;;;;;;6280764;22;20023;-90
2023/05/18 12:37:06;;;;;;;4.70;0.80;;;18.60;49.40;;;;;;6254765;22;20495;-86
2023/05/18 12:39:35;;;;;;;2.67;0.50;;;18.60;49.30;;;;;;6279696;22;20015;-84
2023/05/18 12:42:14;;;;;;;2.40;0.70;;;18.60;49.40;;;;;;6279761;22;20019;-84
2023/05/18 12:44:43;;;;;;;5.00;0.70;;;18.60;49.10;;;;;;6238016;22;20086;-84
2023/05/18 12:47:12;;;;;;;3.72;0.90;;;18.60;49.30;;;;;;6272770;22;20053;-85
2023/05/18 12:49:48;;;;;;;2.78;0.70;;;18.50;49.00;;;;;;6230627;22;20117;-84
2023/05/18 12:52:15;;;;;;;3.33;0.73;;;18.30;49.10;;;;;;6279281;22;20027;-85
2023/05/18 12:54:54;;;;;;;2.70;0.80;;;18.40;49.40;;;;;;6279181;22;20043;-84
2023/05/18 12:57:25;;;;;;;2.40;0.70;;;18.60;48.70;;;;;;6279288;22;20046;-84
2023/05/18 12:59:59;;;;;;;3.45;0.60;;;18.80;48.60;;;;;;6279052;22;20015;-86
2023/05/18 13:02:31;;;;;;;4.13;0.70;;;18.90;48.40;;;;;;6254400;22;20011;-86
2023/05/18 13:05:03;;;;;;;1.10;0.47;;;18.90;48.20;;;;;;6279533;22;20069;-91
2023/05/18 13:07:30;;;;;;;3.92;0.70;;;19.00;48.30;;;;;;6280130;22;20105;-85
2023/05/18 13:10:05;;;;;;;2.55;0.82;;;19.10;48.30;;;;;;6253817;22;20464;-86
2023/05/18 13:12:51;;;;;;;3.38;0.73;;;19.20;47.80;;;;;;6279368;22;20025;-84
2023/05/18 13:15:20;;;;;;;2.88;1.08;;;19.30;47.70;;;;;;6279249;22;20449;-85
2023/05/18 13:17:59;;;;;;;2.38;0.80;;;19.10;47.50;;;;;;6228410;22;20039;-85
2023/05/18 13:20:30;;;;;;;2.85;0.85;;;19.00;47.60;;;;;;6254497;22;20441;-84
2023/05/18 13:23:13;;;;;;;2.70;0.80;;;18.90;47.50;;;;;;6279069;22;20022;-83
2023/05/18 13:25:45;;;;;;;2.23;0.70;;;18.90;47.50;;;;;;6279025;22;20038;-85
2023/05/18 13:28:14;;;;;;;1.70;0.70;;;18.80;47.60;;;;;;6279502;22;20388;-84
2023/05/18 13:30:43;;;;;;;2.65;1.17;;;18.90;47.60;;;;;;6254470;22;20045;-82
2023/05/18 13:33:10;;;;;;;4.88;0.85;;;18.90;47.40;;;;;;6229343;22;20441;-82
2023/05/18 13:35:41;;;;;;;2.00;0.60;;;19.00;47.40;;;;;;6231988;22;20448;-83
2023/05/18 13:38:09;;;;;;;2.45;0.70;;;19.20;47.30;;;;;;6283062;22;20019;-91
2023/05/18 13:40:45;;;;;;;2.30;0.90;;;19.30;47.20;;;;;;6233276;22;20015;-93
2023/05/18 13:43:12;;;;;;;3.70;0.90;;;19.70;46.60;;;;;;6258356;22;20019;-88
2023/05/18 13:45:49;;;;;;;2.53;0.70;;;20.20;46.10;;;;;;6237157;22;20445;-93
2023/05/18 13:48:23;;;;;;;3.10;0.43;;;21.20;45.10;;;;;;6282953;22;20471;-91
2023/05/18 13:50:52;;;;;;;2.83;0.60;;;22.10;44.20;;;;;;6282728;22;20118;-90
2023/05/18 13:53:26;;;;;;;2.83;0.77;;;23.00;43.30;;;;;;6233093;22;20039;-92
2023/05/18 13:56:26;;;;;;;2.83;0.80;;;23.80;42.40;;;;;;6211495;22;20102;-89
2023/05/18 13:58:53;;;;;;;2.63;0.82;;;24.50;41.50;;;;;;6256695;22;20027;-87
2023/05/18 14:01:21;;;;;;;2.53;0.50;;;24.90;41.20;;;;;;6282853;22;20022;-86
2023/05/18 14:03:52;;;;;;;3.05;0.80;;;25.40;40.60;;;;;;6280704;22;20023;-85
2023/05/18 14:06:26;;;;;;;2.75;0.60;;;25.70;40.20;;;;;;6258409;22;20022;-87
2023/05/18 14:09:06;;;;;;;2.53;0.60;;;26.30;39.90;;;;;;6284776;22;20020;-85
2023/05/18 14:11:35;;;;;;;3.05;0.73;;;26.80;39.40;;;;;;6257583;22;20178;-85
2023/05/18 14:14:04;;;;;;;2.20;0.80;;;26.70;38.70;;;;;;6281000;22;20090;-86
2023/05/18 14:16:36;;;;;;;2.35;0.80;;;26.60;39.10;;;;;;6230724;22;20026;-88
2023/05/18 14:19:11;;;;;;;1.42;0.60;;;26.80;38.60;;;;;;6281438;22;20069;-88
2023/05/18 14:21:44;;;;;;;3.10;0.88;;;26.90;38.50;;;;;;6280670;22;20035;-86
2023/05/18 14:24:13;;;;;;;4.28;1.10;;;26.90;38.30;;;;;;6255965;22;20020;-89
2023/05/18 14:26:47;;;;;;;1.38;0.60;;;27.00;38.10;;;;;;6258188;22;20019;-85
2023/05/18 14:29:19;;;;;;;1.70;0.50;;;27.10;37.90;;;;;;6257717;22;20015;-89
2023/05/18 14:31:58;;;;;;;2.53;0.67;;;27.30;37.70;;;;;;6257827;22;20038;-89
2023/05/18 14:35:33;;;;;;;3.88;0.68;;;27.70;37.30;;;;;;6292966;22;19999;-94
2023/05/18 14:38:05;;;;;;;2.33;0.50;;;27.80;36.60;;;;;;6283303;22;20015;-86
2023/05/18 14:40:37;;;;;;;1.77;0.68;;;27.70;36.90;;;;;;6282149;22;20019;-85
2023/05/18 14:43:04;;;;;;;2.22;0.60;;;27.70;36.70;;;;;;6255851;22;20114;-82
2023/05/18 14:45:31;;;;;;;0.98;0.50;;;27.70;36.70;;;;;;6281101;22;20019;-89
2023/05/18 14:47:58;;;;;;;2.50;0.60;;;28.10;36.20;;;;;;6284174;22;20077;-86
2023/05/18 14:50:34;;;;;;;3.13;0.70;;;28.40;36.10;;;;;;6283048;22;20035;-96
2023/05/18 14:53:04;;;;;;;2.28;0.95;;;28.70;35.80;;;;;;6231542;22;20353;-86
2023/05/18 14:55:32;;;;;;;1.75;0.73;;;28.80;35.60;;;;;;6255155;22;20046;-86
2023/05/18 14:58:06;;;;;;;1.07;0.60;;;28.80;35.10;;;;;;6280249;22;20031;-86
2023/05/18 15:00:33;;;;;;;2.43;0.80;;;28.80;35.10;;;;;;6254904;22;20683;-86
2023/05/18 15:03:02;;;;;;;3.17;0.60;;;28.90;34.90;;;;;;6280521;22;20311;-86
2023/05/18 15:05:29;;;;;;;2.08;0.85;;;29.20;34.80;;;;;;6280640;22;20101;-89
2023/05/18 15:07:57;;;;;;;1.60;0.52;;;29.30;34.50;;;;;;6282747;22;20015;-89
2023/05/18 15:10:25;;;;;;;2.00;0.70;;;29.20;34.40;;;;;;6254743;22;20482;-88
2023/05/18 15:12:55;;;;;;;2.10;0.68;;;29.20;34.40;;;;;;6280309;22;20101;-87
2023/05/18 15:15:22;;;;;;;2.78;0.70;;;29.00;34.30;;;;;;6255292;22;20115;-84
2023/05/18 15:21:56;;;;;;;3.47;0.90;;;28.10;34.30;;;;;;6309324;22;20082;-86
2023/05/18 15:24:25;;;;;;;1.55;0.45;;;28.10;34.70;;;;;;6229937;22;20015;-86
2023/05/18 15:26:54;;;;;;;3.38;0.75;;;28.30;34.10;;;;;;6255417;22;20018;-85
2023/05/18 15:29:22;;;;;;;2.20;0.77;;;28.60;33.90;;;;;;6280335;22;20058;-85
2023/05/18 15:31:50;;;;;;;1.27;0.70;;;28.80;33.50;;;;;;6230172;22;20064;-86
2023/05/18 15:34:20;;;;;;;1.20;0.50;;;28.90;33.30;;;;;;6280274;22;20019;-88
2023/05/18 15:37:05;;;;;;;2.45;0.80;;;29.00;33.30;;;;;;6281841;22;20115;-86
2023/05/18 15:39:32;;;;;;;2.72;0.70;;;28.90;33.30;;;;;;6283875;22;20094;-87
2023/05/18 15:42:03;;;;;;;3.70;0.85;;;29.00;32.90;;;;;;6254440;22;20019;-86
2023/05/18 15:44:31;;;;;;;3.88;0.73;;;29.10;32.50;;;;;;6254271;22;20015;-88
2023/05/18 15:46:58;;;;;;;2.13;0.65;;;29.00;33.00;;;;;;6254713;22;20465;-87
2023/05/18 15:49:27;;;;;;;2.72;0.63;;;29.10;32.80;;;;;;6280185;22;20034;-93
2023/05/18 15:51:54;;;;;;;2.88;0.80;;;29.00;32.80;;;;;;6258054;22;20015;-94
2023/05/18 15:58:51;;;;;;;2.67;0.65;;;28.30;32.70;;;;;;6310003;22;20030;-91
2023/05/18 16:01:21;;;;;;;2.60;0.90;;;28.00;33.30;;;;;;6257734;22;20019;-91
2023/05/18 16:03:49;;;;;;;3.10;0.63;;;28.10;33.00;;;;;;6282064;22;20015;-94
2023/05/18 16:06:17;;;;;;;2.33;0.47;;;28.10;33.10;;;;;;6280921;22;20011;-95
2023/05/18 16:08:44;;;;;;;1.80;0.52;;;28.20;32.80;;;;;;6232662;22;20034;-93
2023/05/18 16:11:25;;;;;;;2.78;0.70;;;28.30;32.90;;;;;;6232222;22;20078;-95
2023/05/18 16:13:57;;;;;;;2.85;1.00;;;28.40;32.70;;;;;;6258678;22;20019;-94
2023/05/18 16:16:30;;;;;;;1.17;0.40;;;28.60;32.50;;;;;;6265120;22;20102;-90
2023/05/18 16:19:58;;;;;;;1.45;0.60;;;28.80;32.40;;;;;;6262607;22;20061;-94
2023/05/18 16:22:36;;;;;;;1.95;0.60;;;28.60;32.30;;;;;;6280932;22;20019;-87
2023/05/18 16:25:06;;;;;;;2.00;0.60;;;28.20;32.60;;;;;;6282745;22;20046;-92
2023/05/18 16:32:43;;;;;;;2.15;0.70;;;28.20;32.40;;;;;;6327319;22;20072;-92
2023/05/18 16:35:14;;;;;;;2.13;0.85;;;27.90;32.40;;;;;;6224249;22;20924;-86
2023/05/18 16:37:54;;;;;;;1.13;0.50;;;27.40;32.50;;;;;;6268410;22;20035;-88
2023/05/18 16:40:22;;;;;;;2.45;0.60;;;26.90;32.80;;;;;;6216075;22;20023;-93
2023/05/18 16:47:43;;;;;;;2.22;0.70;;;25.60;33.40;;;;;;6279402;22;20480;-93
2023/05/18 16:50:10;;;;;;;4.47;0.90;;;24.60;34.10;;;;;;6226066;22;20111;-93
2023/05/18 16:52:41;;;;;;;2.00;0.57;;;24.10;34.40;;;;;;6251691;22;20126;-94
2023/05/18 16:55:08;;;;;;;2.80;0.90;;;23.50;34.70;;;;;;6225007;22;20012;-90
2023/05/18 16:57:38;;;;;;;1.98;0.70;;;22.90;35.20;;;;;;6225101;22;20015;-88
2023/05/18 17:00:08;;;;;;;3.17;0.70;;;22.60;35.50;;;;;;6251021;22;20048;-89
2023/05/18 17:03:00;;;;;;;1.80;0.80;;;22.70;35.30;;;;;;6251229;22;20018;-91
2023/05/18 17:05:29;;;;;;;2.75;0.82;;;23.10;34.80;;;;;;6252728;22;20011;-91
2023/05/18 17:07:56;;;;;;;2.38;0.65;;;23.40;34.60;;;;;;6251912;22;20047;-90
2023/05/18 17:10:24;;;;;;;2.85;0.80;;;23.40;34.70;;;;;;6227167;22;20110;-87
2023/05/18 17:12:51;;;;;;;1.60;0.90;;;23.20;35.10;;;;;;6227972;22;20016;-89
2023/05/18 17:15:18;;;;;;;3.22;0.80;;;23.00;35.20;;;;;;6226581;22;20450;-89
2023/05/18 17:17:45;;;;;;;2.70;0.77;;;22.90;35.30;;;;;;6201565;22;20106;-87
2023/05/18 17:20:13;;;;;;;2.53;1.00;;;23.20;35.20;;;;;;6227527;22;20020;-90
2023/05/18 17:22:40;;;;;;;1.77;0.60;;;23.50;35.00;;;;;;6202118;22;20016;-90
2023/05/18 17:25:14;;;;;;;2.53;0.73;;;23.60;34.90;;;;;;6252429;22;20019;-92
2023/05/18 17:41:10;;;;;;;3.22;0.80;;;21.90;36.60;;;;;;6242716;23;20435;-96
2023/05/18 17:43:38;;;;;;;2.88;0.60;;;21.50;37.10;;;;;;6245690;23;20080;-89
2023/05/18 17:46:05;;;;;;;2.47;0.70;;;21.10;37.70;;;;;;6196540;23;20047;-94
2023/05/18 17:48:32;;;;;;;1.48;0.52;;;20.70;38.00;;;;;;6200050;22;20020;-96
2023/05/18 17:54:50;;;;;;;3.17;0.85;;;20.10;38.60;;;;;;6268012;22;20030;-92
2023/05/18 17:57:53;;;;;;;3.20;0.70;;;19.70;39.10;;;;;;6229972;22;20528;-95
2023/05/18 18:00:39;;;;;;;2.55;0.80;;;19.30;39.60;;;;;;6288174;22;20086;-94
2023/05/18 18:10:46;;;;;;;2.15;0.57;;;18.50;40.70;;;;;;6313292;22;20033;-96
2023/05/18 18:13:28;;;;;;;3.88;0.80;;;18.20;41.00;;;;;;6260961;22;20498;-95
2023/05/18 18:16:10;;;;;;;2.42;0.60;;;18.00;41.30;;;;;;6284271;22;20042;-96
2023/05/18 18:19:07;;;;;;;4.55;1.45;;;17.90;41.50;;;;;;6284095;22;20019;-96
2023/05/18 18:26:47;;;;;;;2.70;0.73;;;17.50;42.20;;;;;;6218920;23;20039;-90
2023/05/18 18:29:18;;;;;;;2.42;0.70;;;17.20;42.30;;;;;;6230093;22;20015;-87
2023/05/18 18:31:49;;;;;;;2.65;0.80;;;17.10;42.50;;;;;;6283371;22;20022;-96
2023/05/18 18:34:17;;;;;;;3.15;0.70;;;17.00;42.80;;;;;;6282908;22;20019;-87
2023/05/18 18:39:44;;;;;;;2.50;0.73;;;16.80;43.10;;;;;;6258385;22;20095;-92
2023/05/18 18:42:15;;;;;;;2.60;0.95;;;16.70;43.30;;;;;;6179042;22;20015;-93
2023/05/18 18:44:51;;;;;;;1.63;0.60;;;16.60;43.40;;;;;;6253353;22;20426;-94
2023/05/18 18:47:19;;;;;;;2.33;0.70;;;16.60;43.60;;;;;;6230358;22;20099;-95
2023/05/18 18:49:46;;;;;;;1.60;0.57;;;16.50;43.70;;;;;;6203754;22;20047;-91
2023/05/18 18:52:13;;;;;;;2.00;0.60;;;16.40;43.80;;;;;;6202657;22;20024;-93
2023/05/18 18:54:41;;;;;;;3.15;0.73;;;16.30;44.10;;;;;;6252666;22;20094;-90
2023/05/18 18:57:10;;;;;;;3.58;0.70;;;16.30;44.20;;;;;;6228575;22;20019;-90
2023/05/18 19:04:28;;;;;;;2.03;0.75;;;16.10;44.50;;;;;;6278477;22;20006;-89
2023/05/18 19:07:00;;;;;;;3.10;0.75;;;15.90;44.90;;;;;;6250456;22;20350;-88
2023/05/18 19:09:31;;;;;;;3.15;1.10;;;15.80;45.10;;;;;;6227220;22;20045;-89
2023/05/18 19:12:03;;;;;;;2.83;0.75;;;15.70;45.30;;;;;;6227284;22;20027;-91
2023/05/18 19:14:41;;;;;;;2.10;0.65;;;15.60;45.50;;;;;;6252485;22;20015;-93
2023/05/18 19:17:10;;;;;;;2.97;0.70;;;15.50;45.70;;;;;;6230199;22;20047;-88
2023/05/18 19:19:37;;;;;;;3.25;0.80;;;15.40;45.90;;;;;;6200345;22;20102;-88
2023/05/18 19:22:05;;;;;;;2.95;0.80;;;15.30;46.00;;;;;;6203367;22;20028;-96
2023/05/18 19:24:38;;;;;;;2.78;0.60;;;15.30;46.20;;;;;;6228517;22;20095;-95
2023/05/18 19:27:06;;;;;;;2.70;1.00;;;15.20;46.40;;;;;;6254075;22;20024;-91
2023/05/18 19:29:36;;;;;;;1.92;0.60;;;15.10;46.60;;;;;;6177946;22;20461;-91
2023/05/18 19:32:05;;;;;;;2.50;0.90;;;15.00;46.70;;;;;;6251253;22;20047;-88
2023/05/18 19:34:37;;;;;;;5.25;2.47;;;15.00;46.90;;;;;;6249250;22;20035;-84
2023/05/18 19:37:06;;;;;;;4.32;1.60;;;14.90;47.10;;;;;;6224534;22;20027;-83
2023/05/18 19:39:35;;;;;;;4.18;1.30;;;14.80;47.30;;;;;;6248731;22;20403;-86
2023/05/18 19:42:05;;;;;;;3.53;1.40;;;14.70;47.40;;;;;;6249635;22;20087;-86
2023/05/18 19:44:35;;;;;;;2.28;0.80;;;14.60;47.50;;;;;;6249669;22;20024;-84
2023/05/18 19:47:02;;;;;;;2.95;1.13;;;14.60;47.70;;;;;;6225037;22;20454;-85
2023/05/18 19:49:30;;;;;;;2.47;1.00;;;14.50;47.90;;;;;;6249469;22;20051;-84
2023/05/18 19:52:06;;;;;;;5.53;1.23;;;14.40;48.00;;;;;;6249581;22;20043;-87
2023/05/18 19:54:57;;;;;;;4.00;1.23;;;14.40;48.10;;;;;;6249485;22;20078;-85
2023/05/18 19:57:27;;;;;;;3.40;1.00;;;14.30;48.30;;;;;;6248956;22;20500;-85
2023/05/18 19:59:54;;;;;;;3.08;1.15;;;14.20;48.40;;;;;;6174718;22;20022;-82
2023/05/18 20:02:21;;;;;;;4.22;1.58;;;14.20;49.10;;;;;;6224302;22;20047;-82
2023/05/18 20:04:49;;;;;;;4.22;1.30;;;14.20;48.70;;;;;;6199014;22;20043;-83
2023/05/18 20:07:16;;;;;;;3.25;1.70;;;14.10;48.80;;;;;;6223727;22;20345;-83
2023/05/18 20:09:44;;;;;;;3.83;1.45;;;14.10;48.90;;;;;;6175894;22;20024;-84
2023/05/18 20:12:14;;;;;;;1.95;0.82;;;14.10;49.10;;;;;;6200473;22;20030;-85
2023/05/18 20:14:44;;;;;;;2.63;1.02;;;14.00;49.20;;;;;;6225754;22;20074;-89
2023/05/18 20:17:32;;;;;;;3.22;1.00;;;14.00;49.30;;;;;;6251199;22;20019;-88
2023/05/18 20:20:19;;;;;;;2.15;1.00;;;14.00;49.40;;;;;;6251379;22;20042;-89
2023/05/18 20:23:10;;;;;;;;;;;;;;;;;;;;;
2023/05/18 20:26:51;;;;;;;3.65;1.10;;;13.90;49.60;;;;;;6235828;23;20338;-88
2023/05/18 20:29:19;;;;;;;3.47;1.00;;;13.80;49.70;;;;;;6101156;23;20026;-82
2023/05/18 20:31:49;;;;;;;2.03;1.08;;;13.80;49.90;;;;;;6122818;23;20417;-88
2023/05/18 20:34:21;;;;;;;4.65;1.08;;;13.70;50.00;;;;;;6177337;23;20042;-85
2023/05/18 20:36:55;;;;;;;1.83;0.73;;;13.70;50.10;;;;;;6193914;23;20016;-85
2023/05/18 20:39:24;;;;;;;2.25;1.10;;;13.70;50.30;;;;;;6218058;23;20063;-83
2023/05/18 20:41:52;;;;;;;2.25;0.75;;;13.60;50.30;;;;;;6218738;23;20027;-83
2023/05/18 20:44:21;;;;;;;4.72;1.20;;;13.60;50.40;;;;;;6195931;23;20013;-82
2023/05/18 20:46:51;;;;;;;2.75;1.20;;;13.60;50.50;;;;;;6171603;23;20050;-82
2023/05/18 20:49:23;;;;;;;1.98;0.90;;;13.60;50.60;;;;;;6220686;23;20450;-82
2023/05/18 20:51:51;;;;;;;2.30;0.80;;;13.60;50.70;;;;;;6220675;23;20024;-81
2023/05/18 20:54:19;;;;;;;1.70;0.80;;;13.50;50.80;;;;;;6195435;23;20024;-81
2023/05/18 20:56:48;;;;;;;3.15;0.93;;;13.50;50.80;;;;;;6220562;23;20028;-80
2023/05/18 20:59:15;;;;;;;3.05;1.15;;;13.50;51.60;;;;;;6195221;23;20020;-81
2023/05/18 21:01:42;;;;;;;3.10;1.00;;;13.40;51.10;;;;;;6220071;23;20027;-83
2023/05/18 21:04:12;;;;;;;4.13;1.40;;;13.40;51.40;;;;;;6171937;23;20044;-82
2023/05/18 21:06:42;;;;;;;2.88;1.08;;;13.30;51.60;;;;;;6172574;23;20096;-82
2023/05/18 21:09:10;;;;;;;1.77;0.93;;;13.30;52.10;;;;;;6195176;23;20020;-81
2023/05/18 21:11:46;;;;;;;1.90;0.80;;;13.20;52.50;;;;;;6220586;23;20062;-83
2023/05/18 21:14:18;;;;;;;2.95;0.90;;;13.10;52.70;;;;;;6199348;23;20024;-81
2023/05/18 21:16:45;;;;;;;5.10;1.00;;;13.00;53.00;;;;;;6170322;23;20099;-82
2023/05/18 21:19:18;;;;;;;2.42;0.80;;;13.00;53.40;;;;;;6149889;23;20026;-83
2023/05/18 21:21:46;;;;;;;2.10;0.70;;;12.90;53.80;;;;;;6170706;23;20016;-82
2023/05/18 21:24:13;;;;;;;3.92;0.88;;;12.90;54.10;;;;;;6220191;23;20097;-82
2023/05/18 21:26:40;;;;;;;2.28;0.90;;;12.80;54.60;;;;;;6195678;23;20012;-84
2023/05/18 21:29:08;;;;;;;3.50;0.95;;;12.80;55.00;;;;;;6170323;23;20034;-83
2023/05/18 21:31:35;;;;;;;2.53;0.77;;;12.70;55.20;;;;;;6194814;23;20020;-83
2023/05/18 21:34:03;;;;;;;2.70;0.60;;;12.70;55.60;;;;;;6195978;23;20024;-84
2023/05/18 21:36:32;;;;;;;2.15;0.63;;;12.70;55.90;;;;;;6170876;23;20107;-85
2023/05/18 21:39:01;;;;;;;1.83;0.60;;;12.60;56.10;;;;;;6219805;23;20016;-85
2023/05/18 21:41:29;;;;;;;2.67;0.90;;;12.60;56.30;;;;;;6220171;23;20016;-84
2023/05/18 21:43:58;;;;;;;3.85;0.63;;;12.60;56.50;;;;;;6146176;23;20332;-85
2023/05/18 21:46:26;;;;;;;3.00;0.80;;;12.50;56.90;;;;;;6194849;23;20024;-83
2023/05/18 21:48:53;;;;;;;4.50;0.80;;;12.50;57.20;;;;;;6194960;23;20103;-83
2023/05/18 21:51:20;;;;;;;1.88;0.60;;;12.50;57.60;;;;;;6195044;23;20059;-82
2023/05/18 21:53:47;;;;;;;2.75;0.80;;;12.40;57.80;;;;;;6194572;23;20028;-83
2023/05/18 21:56:14;;;;;;;3.25;0.80;;;12.40;58.00;;;;;;6195073;23;20047;-83
2023/05/18 21:58:44;;;;;;;3.15;0.90;;;12.30;58.40;;;;;;6172444;23;20023;-82
2023/05/18 22:01:18;;;;;;;5.18;1.00;;;12.30;58.50;;;;;;6170276;23;20099;-81
2023/05/18 22:03:46;;;;;;;2.92;0.60;;;12.20;58.70;;;;;;6220091;23;20016;-82
2023/05/18 22:06:13;;;;;;;1.77;0.73;;;12.20;58.90;;;;;;6219716;23;20441;-82
2023/05/18 22:08:41;;;;;;;1.60;0.70;;;12.20;59.10;;;;;;6170167;23;20048;-82
2023/05/18 22:11:08;;;;;;;1.92;0.70;;;12.10;59.10;;;;;;6219535;23;20565;-81
2023/05/18 22:13:38;;;;;;;1.25;0.40;;;12.10;59.30;;;;;;6196722;23;20417;-82
2023/05/18 22:16:05;;;;;;;2.50;0.40;;;12.10;60.30;;;;;;6169962;23;20389;-81
2023/05/18 22:18:32;;;;;;;3.42;0.60;;;12.00;59.70;;;;;;6170256;23;20230;-81
2023/05/18 22:21:00;;;;;;;4.80;1.33;;;12.00;59.90;;;;;;6145711;23;20031;-80
2023/05/18 22:23:28;;;;;;;4.82;0.80;;;11.90;60.00;;;;;;6169822;23;20103;-80
2023/05/18 22:25:55;;;;;;;2.53;0.80;;;11.90;60.20;;;;;;6196172;23;20023;-80
2023/05/18 22:28:22;;;;;;;2.20;0.60;;;11.90;60.60;;;;;;6176412;23;20016;-82
2023/05/18 22:30:51;;;;;;;2.20;0.60;;;11.90;60.70;;;;;;6173313;23;20036;-82
2023/05/18 22:33:19;;;;;;;1.45;0.50;;;11.80;60.80;;;;;;6194758;23;20020;-83
2023/05/18 22:35:47;;;;;;;1.55;0.68;;;11.80;60.90;;;;;;6146749;23;20028;-83
2023/05/18 22:38:15;;;;;;;2.08;0.70;;;11.80;61.10;;;;;;6170077;23;20481;-83
2023/05/18 22:40:44;;;;;;;2.15;0.60;;;11.70;61.30;;;;;;6171975;23;20386;-91
2023/05/18 22:43:11;;;;;;;2.25;0.50;;;11.70;61.40;;;;;;6196973;23;20020;-91
2023/05/18 22:45:39;;;;;;;1.55;0.73;;;11.70;62.10;;;;;;6173254;23;20094;-93
2023/05/18 22:48:06;;;;;;;2.13;0.52;;;11.60;61.70;;;;;;6222794;23;20016;-93
2023/05/18 22:50:35;;;;;;;3.20;0.60;;;11.60;61.70;;;;;;6198158;23;20070;-92
2023/05/18 22:53:03;;;;;;;1.88;0.50;;;11.60;61.80;;;;;;6198052;23;20020;-92
2023/05/18 22:55:31;;;;;;;3.55;0.50;;;11.60;61.90;;;;;;6173315;23;20024;-93
2023/05/18 22:57:59;;;;;;;2.20;0.50;;;11.50;62.00;;;;;;6222253;23;20024;-93
2023/05/18 23:00:26;;;;;;;2.45;0.80;;;11.50;62.00;;;;;;6198530;23;20020;-92
2023/05/18 23:02:55;;;;;;;2.78;0.68;;;11.50;62.10;;;;;;6198440;23;20042;-93
2023/05/18 23:05:26;;;;;;;1.50;0.60;;;11.50;62.20;;;;;;6198099;23;20016;-92
2023/05/18 23:07:56;;;;;;;2.65;0.70;;;11.40;62.30;;;;;;6198172;23;20016;-92
2023/05/18 23:10:25;;;;;;;4.82;0.80;;;11.40;62.40;;;;;;6173955;23;20031;-93
2023/05/18 23:12:57;;;;;;;2.85;0.68;;;11.40;62.50;;;;;;6198138;23;20020;-93
2023/05/18 23:15:26;;;;;;;3.15;0.80;;;11.40;62.70;;;;;;6222947;23;20098;-93
2023/05/18 23:17:53;;;;;;;3.33;0.70;;;11.40;62.70;;;;;;6197267;23;20066;-92
2023/05/18 23:20:21;;;;;;;2.42;0.70;;;11.30;62.90;;;;;;6196861;23;20071;-93
2023/05/18 23:22:52;;;;;;;4.05;0.90;;;11.30;63.10;;;;;;6221287;23;20024;-93
2023/05/18 23:25:22;;;;;;;3.17;0.90;;;11.30;63.40;;;;;;6196997;23;20020;-94
2023/05/18 23:27:50;;;;;;;2.45;0.95;;;11.20;63.40;;;;;;6196356;23;20020;-93
2023/05/18 23:30:25;;;;;;;3.80;1.00;;;11.20;63.70;;;;;;6221170;23;20027;-93
2023/05/18 23:32:53;;;;;;;3.45;0.80;;;11.10;63.90;;;;;;6172047;23;20024;-93
2023/05/18 23:35:21;;;;;;;4.68;1.13;;;11.10;63.90;;;;;;6196747;23;20024;-93
2023/05/18 23:37:49;;;;;;;3.38;0.60;;;11.10;64.10;;;;;;6171439;23;20042;-91
2023/05/18 23:40:18;;;;;;;2.15;0.77;;;11.10;64.30;;;;;;6221476;23;20013;-92
2023/05/18 23:42:47;;;;;;;4.57;0.90;;;11.00;64.40;;;;;;6197363;23;20442;-95